sensor_id;sensor_type;location;lat;lon;timestamp;P1;durP1;ratioP1;P2;durP2;ratioP2
14817;SDS011;7500;57.698;11.986;2023-02-15T00:01:30;20.57;;;11.90;;
14817;SDS011;7500;57.698;11.986;2023-02-15T00:03:59;17.97;;;11.60;;
14817;SDS011;7500;57.698;11.986;2023-02-15T00:06:26;19.90;;;11.37;;
14817;SDS011;7500;57.698;11.986;2023-02-15T00:08:53;16.80;;;11.07;;
14817;SDS011;7500;57.698;11.986;2023-02-15T00:11:21;23.13;;;11.90;;
14817;SDS011;7500;57.698;11.986;2023-02-15T00:14:02;17.63;;;11.17;;
14817;SDS011;7500;57.698;11.986;2023-02-15T00:16:29;20.23;;;11.93;;
14817;SDS011;7500;57.698;11.986;2023-02-15T00:18:56;18.63;;;11.47;;
14817;SDS011;7500;57.698;11.986;2023-02-15T00:21:28;19.97;;;12.13;;
14817;SDS011;7500;57.698;11.986;2023-02-15T00:23:56;19.40;;;11.77;;
14817;SDS011;7500;57.698;11.986;2023-02-15T00:26:23;19.87;;;11.93;;
14817;SDS011;7500;57.698;11.986;2023-02-15T00:28:50;19.77;;;11.40;;
14817;SDS011;7500;57.698;11.986;2023-02-15T00:31:17;20.43;;;12.43;;
14817;SDS011;7500;57.698;11.986;2023-02-15T00:33:44;19.47;;;11.63;;
14817;SDS011;7500;57.698;11.986;2023-02-15T00:36:12;18.17;;;10.90;;
14817;SDS011;7500;57.698;11.986;2023-02-15T00:38:40;20.17;;;11.50;;
14817;SDS011;7500;57.698;11.986;2023-02-15T00:41:07;18.07;;;11.13;;
14817;SDS011;7500;57.698;11.986;2023-02-15T00:43:35;17.83;;;11.00;;
14817;SDS011;7500;57.698;11.986;2023-02-15T00:46:03;19.67;;;11.60;;
14817;SDS011;7500;57.698;11.986;2023-02-15T00:48:31;18.83;;;11.47;;
14817;SDS011;7500;57.698;11.986;2023-02-15T00:50:58;20.57;;;11.87;;
14817;SDS011;7500;57.698;11.986;2023-02-15T00:53:27;19.70;;;12.40;;
14817;SDS011;7500;57.698;11.986;2023-02-15T00:55:56;20.03;;;12.27;;
14817;SDS011;7500;57.698;11.986;2023-02-15T00:58:24;19.87;;;12.27;;
14817;SDS011;7500;57.698;11.986;2023-02-15T01:00:51;20.23;;;12.27;;
14817;SDS011;7500;57.698;11.986;2023-02-15T01:03:19;19.67;;;12.47;;
14817;SDS011;7500;57.698;11.986;2023-02-15T01:05:47;20.27;;;11.93;;
14817;SDS011;7500;57.698;11.986;2023-02-15T01:08:16;17.40;;;11.43;;
14817;SDS011;7500;57.698;11.986;2023-02-15T01:10:43;21.80;;;13.07;;
14817;SDS011;7500;57.698;11.986;2023-02-15T01:13:14;19.77;;;12.40;;
14817;SDS011;7500;57.698;11.986;2023-02-15T01:15:41;21.67;;;12.03;;
14817;SDS011;7500;57.698;11.986;2023-02-15T01:18:08;19.90;;;12.00;;
14817;SDS011;7500;57.698;11.986;2023-02-15T01:20:36;20.03;;;12.03;;
14817;SDS011;7500;57.698;11.986;2023-02-15T01:23:06;21.93;;;12.27;;
14817;SDS011;7500;57.698;11.986;2023-02-15T01:25:34;20.80;;;12.63;;
14817;SDS011;7500;57.698;11.986;2023-02-15T01:28:02;22.30;;;13.00;;
14817;SDS011;7500;57.698;11.986;2023-02-15T01:30:31;19.80;;;12.00;;
14817;SDS011;7500;57.698;11.986;2023-02-15T01:32:58;20.13;;;12.90;;
14817;SDS011;7500;57.698;11.986;2023-02-15T01:35:26;19.80;;;12.13;;
14817;SDS011;7500;57.698;11.986;2023-02-15T01:37:53;20.80;;;12.47;;
14817;SDS011;7500;57.698;11.986;2023-02-15T01:40:20;23.73;;;14.10;;
14817;SDS011;7500;57.698;11.986;2023-02-15T01:42:49;22.67;;;13.23;;
14817;SDS011;7500;57.698;11.986;2023-02-15T01:45:22;22.77;;;12.73;;
14817;SDS011;7500;57.698;11.986;2023-02-15T01:47:54;20.63;;;12.47;;
14817;SDS011;7500;57.698;11.986;2023-02-15T01:50:26;24.17;;;13.23;;
14817;SDS011;7500;57.698;11.986;2023-02-15T01:52:57;21.83;;;12.80;;
14817;SDS011;7500;57.698;11.986;2023-02-15T01:55:29;22.20;;;13.27;;
14817;SDS011;7500;57.698;11.986;2023-02-15T01:58:03;21.50;;;13.13;;
14817;SDS011;7500;57.698;11.986;2023-02-15T02:00:30;19.40;;;11.90;;
14817;SDS011;7500;57.698;11.986;2023-02-15T02:02:59;22.10;;;12.43;;
14817;SDS011;7500;57.698;11.986;2023-02-15T02:05:27;20.83;;;12.23;;
14817;SDS011;7500;57.698;11.986;2023-02-15T02:07:56;20.33;;;13.23;;
14817;SDS011;7500;57.698;11.986;2023-02-15T02:10:25;23.13;;;12.93;;
14817;SDS011;7500;57.698;11.986;2023-02-15T02:12:52;20.07;;;12.73;;
14817;SDS011;7500;57.698;11.986;2023-02-15T02:15:27;22.07;;;13.70;;
14817;SDS011;7500;57.698;11.986;2023-02-15T02:18:06;20.53;;;12.43;;
14817;SDS011;7500;57.698;11.986;2023-02-15T02:24:01;19.03;;;12.33;;
14817;SDS011;7500;57.698;11.986;2023-02-15T02:27:12;19.60;;;12.00;;
14817;SDS011;7500;57.698;11.986;2023-02-15T02:33:09;18.93;;;12.03;;
14817;SDS011;7500;57.698;11.986;2023-02-15T02:35:48;19.43;;;12.50;;
14817;SDS011;7500;57.698;11.986;2023-02-15T02:38:24;19.70;;;12.57;;
14817;SDS011;7500;57.698;11.986;2023-02-15T02:40:57;20.00;;;12.83;;
14817;SDS011;7500;57.698;11.986;2023-02-15T02:43:36;19.93;;;12.63;;
14817;SDS011;7500;57.698;11.986;2023-02-15T02:46:13;21.73;;;11.97;;
14817;SDS011;7500;57.698;11.986;2023-02-15T02:48:47;21.30;;;13.17;;
14817;SDS011;7500;57.698;11.986;2023-02-15T02:51:15;18.87;;;11.80;;
14817;SDS011;7500;57.698;11.986;2023-02-15T02:53:47;19.67;;;11.70;;
14817;SDS011;7500;57.698;11.986;2023-02-15T02:56:18;19.80;;;12.60;;
14817;SDS011;7500;57.698;11.986;2023-02-15T02:58:51;21.87;;;13.63;;
14817;SDS011;7500;57.698;11.986;2023-02-15T03:01:26;21.93;;;14.07;;
14817;SDS011;7500;57.698;11.986;2023-02-15T03:03:57;23.40;;;13.70;;
14817;SDS011;7500;57.698;11.986;2023-02-15T03:06:30;21.10;;;13.40;;
14817;SDS011;7500;57.698;11.986;2023-02-15T03:09:03;22.37;;;13.87;;
14817;SDS011;7500;57.698;11.986;2023-02-15T03:11:39;22.37;;;13.50;;
14817;SDS011;7500;57.698;11.986;2023-02-15T03:14:08;19.93;;;13.53;;
14817;SDS011;7500;57.698;11.986;2023-02-15T03:16:36;21.17;;;13.77;;
14817;SDS011;7500;57.698;11.986;2023-02-15T03:19:07;20.50;;;12.60;;
14817;SDS011;7500;57.698;11.986;2023-02-15T03:21:37;23.43;;;13.63;;
14817;SDS011;7500;57.698;11.986;2023-02-15T03:24:09;22.30;;;13.40;;
14817;SDS011;7500;57.698;11.986;2023-02-15T03:26:39;22.33;;;13.87;;
14817;SDS011;7500;57.698;11.986;2023-02-15T03:29:09;23.77;;;14.33;;
14817;SDS011;7500;57.698;11.986;2023-02-15T03:31:39;21.97;;;14.00;;
14817;SDS011;7500;57.698;11.986;2023-02-15T03:34:11;23.27;;;14.47;;
14817;SDS011;7500;57.698;11.986;2023-02-15T03:36:42;21.63;;;13.77;;
14817;SDS011;7500;57.698;11.986;2023-02-15T03:39:14;22.00;;;14.33;;
14817;SDS011;7500;57.698;11.986;2023-02-15T03:41:49;24.17;;;14.80;;
14817;SDS011;7500;57.698;11.986;2023-02-15T03:44:23;24.97;;;14.77;;
14817;SDS011;7500;57.698;11.986;2023-02-15T03:46:55;23.63;;;14.63;;
14817;SDS011;7500;57.698;11.986;2023-02-15T03:49:29;21.93;;;14.13;;
14817;SDS011;7500;57.698;11.986;2023-02-15T03:52:07;22.63;;;14.47;;
14817;SDS011;7500;57.698;11.986;2023-02-15T03:54:37;24.43;;;15.67;;
14817;SDS011;7500;57.698;11.986;2023-02-15T03:57:09;25.87;;;15.47;;
14817;SDS011;7500;57.698;11.986;2023-02-15T03:59:55;23.80;;;14.43;;
14817;SDS011;7500;57.698;11.986;2023-02-15T04:02:42;26.30;;;15.47;;
14817;SDS011;7500;57.698;11.986;2023-02-15T04:05:19;26.70;;;16.27;;
14817;SDS011;7500;57.698;11.986;2023-02-15T04:07:45;24.67;;;15.00;;
14817;SDS011;7500;57.698;11.986;2023-02-15T04:10:12;23.67;;;14.70;;
14817;SDS011;7500;57.698;11.986;2023-02-15T04:12:56;26.03;;;15.90;;
14817;SDS011;7500;57.698;11.986;2023-02-15T04:15:23;24.70;;;15.00;;
14817;SDS011;7500;57.698;11.986;2023-02-15T04:18:07;25.77;;;15.50;;
14817;SDS011;7500;57.698;11.986;2023-02-15T04:20:36;26.63;;;15.87;;
14817;SDS011;7500;57.698;11.986;2023-02-15T04:23:20;24.50;;;15.00;;
14817;SDS011;7500;57.698;11.986;2023-02-15T04:26:04;26.10;;;16.40;;
14817;SDS011;7500;57.698;11.986;2023-02-15T04:28:31;28.20;;;16.70;;
14817;SDS011;7500;57.698;11.986;2023-02-15T04:30:58;25.47;;;15.77;;
14817;SDS011;7500;57.698;11.986;2023-02-15T04:33:25;27.77;;;16.20;;
14817;SDS011;7500;57.698;11.986;2023-02-15T04:35:53;28.67;;;16.50;;
14817;SDS011;7500;57.698;11.986;2023-02-15T04:38:21;29.17;;;16.73;;
14817;SDS011;7500;57.698;11.986;2023-02-15T04:40:49;27.53;;;17.00;;
14817;SDS011;7500;57.698;11.986;2023-02-15T04:43:17;32.10;;;17.73;;
14817;SDS011;7500;57.698;11.986;2023-02-15T04:45:47;30.00;;;17.03;;
14817;SDS011;7500;57.698;11.986;2023-02-15T04:48:14;30.30;;;17.00;;
14817;SDS011;7500;57.698;11.986;2023-02-15T04:50:41;31.03;;;16.37;;
14817;SDS011;7500;57.698;11.986;2023-02-15T04:53:10;27.37;;;16.50;;
14817;SDS011;7500;57.698;11.986;2023-02-15T04:55:37;27.87;;;16.07;;
14817;SDS011;7500;57.698;11.986;2023-02-15T04:58:04;26.93;;;15.60;;
14817;SDS011;7500;57.698;11.986;2023-02-15T05:00:31;26.57;;;15.70;;
14817;SDS011;7500;57.698;11.986;2023-02-15T05:02:58;28.40;;;16.70;;
14817;SDS011;7500;57.698;11.986;2023-02-15T05:05:25;29.50;;;17.30;;
14817;SDS011;7500;57.698;11.986;2023-02-15T05:07:51;29.20;;;16.00;;
14817;SDS011;7500;57.698;11.986;2023-02-15T05:10:20;31.57;;;16.40;;
14817;SDS011;7500;57.698;11.986;2023-02-15T05:12:47;28.93;;;16.13;;
14817;SDS011;7500;57.698;11.986;2023-02-15T05:15:14;26.37;;;15.40;;
14817;SDS011;7500;57.698;11.986;2023-02-15T05:17:41;26.10;;;15.50;;
14817;SDS011;7500;57.698;11.986;2023-02-15T05:20:08;29.33;;;17.37;;
14817;SDS011;7500;57.698;11.986;2023-02-15T05:22:36;29.13;;;16.57;;
14817;SDS011;7500;57.698;11.986;2023-02-15T05:25:03;28.00;;;15.30;;
14817;SDS011;7500;57.698;11.986;2023-02-15T05:27:48;29.30;;;16.80;;
14817;SDS011;7500;57.698;11.986;2023-02-15T05:30:32;26.57;;;15.13;;
14817;SDS011;7500;57.698;11.986;2023-02-15T05:32:59;27.93;;;16.23;;
14817;SDS011;7500;57.698;11.986;2023-02-15T05:35:26;27.00;;;16.17;;
14817;SDS011;7500;57.698;11.986;2023-02-15T05:37:56;29.53;;;16.37;;
14817;SDS011;7500;57.698;11.986;2023-02-15T05:40:23;29.60;;;17.73;;
14817;SDS011;7500;57.698;11.986;2023-02-15T05:42:51;27.80;;;16.07;;
14817;SDS011;7500;57.698;11.986;2023-02-15T05:45:18;25.53;;;15.27;;
14817;SDS011;7500;57.698;11.986;2023-02-15T05:47:45;27.37;;;15.80;;
14817;SDS011;7500;57.698;11.986;2023-02-15T05:50:12;29.97;;;17.13;;
14817;SDS011;7500;57.698;11.986;2023-02-15T05:52:39;28.67;;;16.03;;
14817;SDS011;7500;57.698;11.986;2023-02-15T05:55:06;26.47;;;15.80;;
14817;SDS011;7500;57.698;11.986;2023-02-15T05:57:33;29.73;;;16.87;;
14817;SDS011;7500;57.698;11.986;2023-02-15T06:00:03;26.50;;;15.50;;
14817;SDS011;7500;57.698;11.986;2023-02-15T06:02:32;26.33;;;16.03;;
14817;SDS011;7500;57.698;11.986;2023-02-15T06:05:00;31.67;;;16.50;;
14817;SDS011;7500;57.698;11.986;2023-02-15T06:07:27;29.20;;;15.90;;
14817;SDS011;7500;57.698;11.986;2023-02-15T06:09:54;26.63;;;16.30;;
14817;SDS011;7500;57.698;11.986;2023-02-15T06:12:21;30.10;;;20.85;;
14817;SDS011;7500;57.698;11.986;2023-02-15T06:14:48;28.70;;;16.83;;
14817;SDS011;7500;57.698;11.986;2023-02-15T06:17:16;26.60;;;15.30;;
14817;SDS011;7500;57.698;11.986;2023-02-15T06:19:43;24.63;;;14.93;;
14817;SDS011;7500;57.698;11.986;2023-02-15T06:22:10;24.27;;;15.30;;
14817;SDS011;7500;57.698;11.986;2023-02-15T06:24:39;25.73;;;16.00;;
14817;SDS011;7500;57.698;11.986;2023-02-15T06:27:07;25.90;;;15.53;;
14817;SDS011;7500;57.698;11.986;2023-02-15T06:29:34;24.13;;;14.73;;
14817;SDS011;7500;57.698;11.986;2023-02-15T06:32:01;25.27;;;14.73;;
14817;SDS011;7500;57.698;11.986;2023-02-15T06:34:29;25.23;;;15.63;;
14817;SDS011;7500;57.698;11.986;2023-02-15T06:36:56;27.30;;;15.60;;
14817;SDS011;7500;57.698;11.986;2023-02-15T06:39:23;23.27;;;14.53;;
14817;SDS011;7500;57.698;11.986;2023-02-15T06:41:50;24.83;;;16.13;;
14817;SDS011;7500;57.698;11.986;2023-02-15T06:44:17;22.67;;;14.43;;
14817;SDS011;7500;57.698;11.986;2023-02-15T06:46:44;25.43;;;15.37;;
14817;SDS011;7500;57.698;11.986;2023-02-15T06:49:11;28.67;;;16.47;;
14817;SDS011;7500;57.698;11.986;2023-02-15T06:51:39;23.93;;;15.80;;
14817;SDS011;7500;57.698;11.986;2023-02-15T06:54:06;24.07;;;15.23;;
14817;SDS011;7500;57.698;11.986;2023-02-15T06:56:33;26.17;;;15.97;;
14817;SDS011;7500;57.698;11.986;2023-02-15T06:59:00;23.47;;;15.00;;
14817;SDS011;7500;57.698;11.986;2023-02-15T07:01:27;25.13;;;16.00;;
14817;SDS011;7500;57.698;11.986;2023-02-15T07:03:54;25.60;;;15.73;;
14817;SDS011;7500;57.698;11.986;2023-02-15T07:06:21;23.80;;;15.20;;
14817;SDS011;7500;57.698;11.986;2023-02-15T07:08:49;23.67;;;14.77;;
14817;SDS011;7500;57.698;11.986;2023-02-15T07:11:16;24.33;;;14.87;;
14817;SDS011;7500;57.698;11.986;2023-02-15T07:14:00;24.90;;;14.63;;
14817;SDS011;7500;57.698;11.986;2023-02-15T07:16:27;23.47;;;15.00;;
14817;SDS011;7500;57.698;11.986;2023-02-15T07:18:54;21.23;;;14.10;;
14817;SDS011;7500;57.698;11.986;2023-02-15T07:21:21;25.17;;;14.80;;
14817;SDS011;7500;57.698;11.986;2023-02-15T07:23:49;24.37;;;14.80;;
14817;SDS011;7500;57.698;11.986;2023-02-15T07:26:16;23.80;;;14.97;;
14817;SDS011;7500;57.698;11.986;2023-02-15T07:28:43;23.53;;;14.63;;
14817;SDS011;7500;57.698;11.986;2023-02-15T07:31:10;29.70;;;16.03;;
14817;SDS011;7500;57.698;11.986;2023-02-15T07:33:37;27.33;;;15.93;;
14817;SDS011;7500;57.698;11.986;2023-02-15T07:36:04;22.57;;;14.73;;
14817;SDS011;7500;57.698;11.986;2023-02-15T07:38:32;24.60;;;14.87;;
14817;SDS011;7500;57.698;11.986;2023-02-15T07:41:02;28.43;;;16.00;;
14817;SDS011;7500;57.698;11.986;2023-02-15T07:43:32;25.63;;;14.83;;
14817;SDS011;7500;57.698;11.986;2023-02-15T07:45:59;26.10;;;14.63;;
14817;SDS011;7500;57.698;11.986;2023-02-15T07:48:27;23.30;;;14.27;;
14817;SDS011;7500;57.698;11.986;2023-02-15T07:50:54;26.67;;;15.67;;
14817;SDS011;7500;57.698;11.986;2023-02-15T07:53:24;31.90;;;16.13;;
14817;SDS011;7500;57.698;11.986;2023-02-15T07:55:51;29.93;;;15.97;;
14817;SDS011;7500;57.698;11.986;2023-02-15T07:58:20;24.47;;;12.97;;
14817;SDS011;7500;57.698;11.986;2023-02-15T08:01:07;28.30;;;15.83;;
14817;SDS011;7500;57.698;11.986;2023-02-15T08:03:33;23.83;;;14.90;;
14817;SDS011;7500;57.698;11.986;2023-02-15T08:06:00;26.07;;;15.97;;
14817;SDS011;7500;57.698;11.986;2023-02-15T08:08:27;28.60;;;15.80;;
14817;SDS011;7500;57.698;11.986;2023-02-15T08:10:58;26.63;;;15.80;;
14817;SDS011;7500;57.698;11.986;2023-02-15T08:13:45;26.60;;;15.90;;
14817;SDS011;7500;57.698;11.986;2023-02-15T08:16:25;25.67;;;16.10;;
14817;SDS011;7500;57.698;11.986;2023-02-15T08:18:53;26.07;;;15.57;;
14817;SDS011;7500;57.698;11.986;2023-02-15T08:21:21;26.67;;;15.67;;
14817;SDS011;7500;57.698;11.986;2023-02-15T08:23:49;26.97;;;15.67;;
14817;SDS011;7500;57.698;11.986;2023-02-15T08:26:15;29.13;;;16.60;;
14817;SDS011;7500;57.698;11.986;2023-02-15T08:28:43;27.07;;;16.47;;
14817;SDS011;7500;57.698;11.986;2023-02-15T08:31:12;26.43;;;15.77;;
14817;SDS011;7500;57.698;11.986;2023-02-15T08:33:40;26.30;;;15.50;;
14817;SDS011;7500;57.698;11.986;2023-02-15T08:36:09;28.70;;;16.40;;
14817;SDS011;7500;57.698;11.986;2023-02-15T08:38:38;27.93;;;16.83;;
14817;SDS011;7500;57.698;11.986;2023-02-15T08:41:12;31.33;;;16.17;;
14817;SDS011;7500;57.698;11.986;2023-02-15T08:43:40;28.33;;;16.80;;
14817;SDS011;7500;57.698;11.986;2023-02-15T08:46:10;27.10;;;15.53;;
14817;SDS011;7500;57.698;11.986;2023-02-15T08:48:37;27.37;;;16.23;;
14817;SDS011;7500;57.698;11.986;2023-02-15T08:51:05;25.27;;;15.50;;
14817;SDS011;7500;57.698;11.986;2023-02-15T08:53:35;26.57;;;15.60;;
14817;SDS011;7500;57.698;11.986;2023-02-15T08:56:02;26.93;;;15.83;;
14817;SDS011;7500;57.698;11.986;2023-02-15T08:58:30;28.73;;;16.90;;
14817;SDS011;7500;57.698;11.986;2023-02-15T09:00:57;27.00;;;16.10;;
14817;SDS011;7500;57.698;11.986;2023-02-15T09:03:25;26.23;;;16.10;;
14817;SDS011;7500;57.698;11.986;2023-02-15T09:05:56;29.40;;;15.93;;
14817;SDS011;7500;57.698;11.986;2023-02-15T09:08:24;31.53;;;15.57;;
14817;SDS011;7500;57.698;11.986;2023-02-15T09:10:51;30.47;;;20.47;;
14817;SDS011;7500;57.698;11.986;2023-02-15T09:13:19;26.43;;;17.00;;
14817;SDS011;7500;57.698;11.986;2023-02-15T09:15:46;30.10;;;16.27;;
14817;SDS011;7500;57.698;11.986;2023-02-15T09:18:13;27.50;;;15.70;;
14817;SDS011;7500;57.698;11.986;2023-02-15T09:20:44;29.70;;;15.70;;
14817;SDS011;7500;57.698;11.986;2023-02-15T09:23:11;29.67;;;16.23;;
14817;SDS011;7500;57.698;11.986;2023-02-15T09:25:39;28.43;;;16.03;;
14817;SDS011;7500;57.698;11.986;2023-02-15T09:28:07;30.60;;;15.97;;
14817;SDS011;7500;57.698;11.986;2023-02-15T09:30:34;28.63;;;15.07;;
14817;SDS011;7500;57.698;11.986;2023-02-15T09:33:01;30.43;;;17.33;;
14817;SDS011;7500;57.698;11.986;2023-02-15T09:35:28;31.60;;;16.77;;
14817;SDS011;7500;57.698;11.986;2023-02-15T09:37:57;29.13;;;15.83;;
14817;SDS011;7500;57.698;11.986;2023-02-15T09:40:23;28.80;;;15.37;;
14817;SDS011;7500;57.698;11.986;2023-02-15T09:48:48;28.80;;;15.93;;
14817;SDS011;7500;57.698;11.986;2023-02-15T09:51:31;27.17;;;16.00;;
14817;SDS011;7500;57.698;11.986;2023-02-15T09:54:28;28.20;;;17.40;;
14817;SDS011;7500;57.698;11.986;2023-02-15T09:57:07;29.03;;;17.13;;
14817;SDS011;7500;57.698;11.986;2023-02-15T09:59:45;29.53;;;15.77;;
14817;SDS011;7500;57.698;11.986;2023-02-15T10:02:24;25.50;;;15.30;;
14817;SDS011;7500;57.698;11.986;2023-02-15T10:05:06;27.93;;;16.77;;
14817;SDS011;7500;57.698;11.986;2023-02-15T10:07:50;28.73;;;16.50;;
14817;SDS011;7500;57.698;11.986;2023-02-15T10:10:38;28.37;;;16.47;;
14817;SDS011;7500;57.698;11.986;2023-02-15T10:13:15;25.97;;;16.13;;
14817;SDS011;7500;57.698;11.986;2023-02-15T10:15:57;28.23;;;17.57;;
14817;SDS011;7500;57.698;11.986;2023-02-15T10:18:43;34.13;;;17.67;;
14817;SDS011;7500;57.698;11.986;2023-02-15T10:21:26;28.77;;;16.53;;
14817;SDS011;7500;57.698;11.986;2023-02-15T10:24:13;28.57;;;17.57;;
14817;SDS011;7500;57.698;11.986;2023-02-15T10:27:02;31.97;;;17.87;;
14817;SDS011;7500;57.698;11.986;2023-02-15T10:29:35;30.00;;;18.40;;
14817;SDS011;7500;57.698;11.986;2023-02-15T10:32:05;28.60;;;16.63;;
14817;SDS011;7500;57.698;11.986;2023-02-15T10:34:43;28.95;;;21.85;;
14817;SDS011;7500;57.698;11.986;2023-02-15T10:37:20;30.10;;;21.70;;
14817;SDS011;7500;57.698;11.986;2023-02-15T10:40:11;32.40;;;19.30;;
14817;SDS011;7500;57.698;11.986;2023-02-15T10:42:52;30.60;;;23.58;;
14817;SDS011;7500;57.698;11.986;2023-02-15T10:45:44;27.30;;;18.40;;
14817;SDS011;7500;57.698;11.986;2023-02-15T10:48:23;26.87;;;17.70;;
14817;SDS011;7500;57.698;11.986;2023-02-15T10:51:03;28.53;;;18.37;;
14817;SDS011;7500;57.698;11.986;2023-02-15T10:53:38;29.83;;;18.43;;
14817;SDS011;7500;57.698;11.986;2023-02-15T10:56:25;28.63;;;17.90;;
14817;SDS011;7500;57.698;11.986;2023-02-15T10:59:05;28.57;;;17.27;;
14817;SDS011;7500;57.698;11.986;2023-02-15T11:01:47;23.30;;;16.13;;
14817;SDS011;7500;57.698;11.986;2023-02-15T11:07:17;27.33;;;15.77;;
14817;SDS011;7500;57.698;11.986;2023-02-15T11:09:48;30.53;;;16.63;;
14817;SDS011;7500;57.698;11.986;2023-02-15T11:12:20;26.70;;;15.17;;
14817;SDS011;7500;57.698;11.986;2023-02-15T11:14:51;24.47;;;13.93;;
14817;SDS011;7500;57.698;11.986;2023-02-15T11:17:25;29.63;;;15.80;;
14817;SDS011;7500;57.698;11.986;2023-02-15T11:19:58;22.20;;;13.97;;
14817;SDS011;7500;57.698;11.986;2023-02-15T11:22:31;26.47;;;14.90;;
14817;SDS011;7500;57.698;11.986;2023-02-15T11:25:00;25.90;;;14.93;;
14817;SDS011;7500;57.698;11.986;2023-02-15T11:27:33;28.23;;;14.27;;
14817;SDS011;7500;57.698;11.986;2023-02-15T11:30:03;25.53;;;14.50;;
14817;SDS011;7500;57.698;11.986;2023-02-15T11:32:35;24.57;;;14.50;;
14817;SDS011;7500;57.698;11.986;2023-02-15T11:35:10;27.07;;;14.53;;
14817;SDS011;7500;57.698;11.986;2023-02-15T11:37:46;22.73;;;13.83;;
14817;SDS011;7500;57.698;11.986;2023-02-15T11:40:19;26.47;;;14.50;;
14817;SDS011;7500;57.698;11.986;2023-02-15T11:42:51;24.13;;;14.33;;
14817;SDS011;7500;57.698;11.986;2023-02-15T11:45:25;26.47;;;14.00;;
14817;SDS011;7500;57.698;11.986;2023-02-15T11:47:53;24.80;;;14.97;;
14817;SDS011;7500;57.698;11.986;2023-02-15T11:50:22;28.50;;;15.00;;
14817;SDS011;7500;57.698;11.986;2023-02-15T11:52:51;26.53;;;15.07;;
14817;SDS011;7500;57.698;11.986;2023-02-15T11:55:20;26.23;;;14.70;;
14817;SDS011;7500;57.698;11.986;2023-02-15T11:57:50;30.93;;;15.00;;
14817;SDS011;7500;57.698;11.986;2023-02-15T12:00:26;25.97;;;15.10;;
14817;SDS011;7500;57.698;11.986;2023-02-15T12:03:02;24.83;;;15.27;;
14817;SDS011;7500;57.698;11.986;2023-02-15T12:05:36;25.57;;;15.00;;
14817;SDS011;7500;57.698;11.986;2023-02-15T12:08:10;27.53;;;16.03;;
14817;SDS011;7500;57.698;11.986;2023-02-15T12:10:43;28.20;;;15.73;;
14817;SDS011;7500;57.698;11.986;2023-02-15T12:13:22;27.37;;;16.20;;
14817;SDS011;7500;57.698;11.986;2023-02-15T12:15:51;27.30;;;15.63;;
14817;SDS011;7500;57.698;11.986;2023-02-15T12:18:33;29.87;;;17.40;;
14817;SDS011;7500;57.698;11.986;2023-02-15T12:21:03;28.13;;;15.87;;
14817;SDS011;7500;57.698;11.986;2023-02-15T12:23:33;28.33;;;17.23;;
14817;SDS011;7500;57.698;11.986;2023-02-15T12:26:05;29.43;;;17.33;;
14817;SDS011;7500;57.698;11.986;2023-02-15T12:28:33;30.23;;;16.77;;
14817;SDS011;7500;57.698;11.986;2023-02-15T12:31:07;27.43;;;17.40;;
14817;SDS011;7500;57.698;11.986;2023-02-15T12:33:38;29.60;;;18.00;;
14817;SDS011;7500;57.698;11.986;2023-02-15T12:36:11;31.73;;;18.33;;
14817;SDS011;7500;57.698;11.986;2023-02-15T12:38:41;29.63;;;17.47;;
14817;SDS011;7500;57.698;11.986;2023-02-15T12:41:21;30.50;;;18.43;;
14817;SDS011;7500;57.698;11.986;2023-02-15T12:44:02;28.97;;;17.43;;
14817;SDS011;7500;57.698;11.986;2023-02-15T12:46:32;29.73;;;17.73;;
14817;SDS011;7500;57.698;11.986;2023-02-15T12:49:07;31.03;;;18.07;;
14817;SDS011;7500;57.698;11.986;2023-02-15T12:51:47;29.20;;;18.20;;
14817;SDS011;7500;57.698;11.986;2023-02-15T12:59:56;30.00;;;17.27;;
14817;SDS011;7500;57.698;11.986;2023-02-15T13:02:28;30.90;;;17.90;;
14817;SDS011;7500;57.698;11.986;2023-02-15T13:05:04;31.83;;;17.53;;
14817;SDS011;7500;57.698;11.986;2023-02-15T13:07:44;30.23;;;17.63;;
14817;SDS011;7500;57.698;11.986;2023-02-15T13:10:18;27.47;;;15.73;;
14817;SDS011;7500;57.698;11.986;2023-02-15T13:12:50;30.13;;;17.17;;
14817;SDS011;7500;57.698;11.986;2023-02-15T13:15:23;28.23;;;16.47;;
14817;SDS011;7500;57.698;11.986;2023-02-15T13:17:54;29.50;;;17.97;;
14817;SDS011;7500;57.698;11.986;2023-02-15T13:20:22;29.33;;;17.40;;
14817;SDS011;7500;57.698;11.986;2023-02-15T13:22:50;32.47;;;16.93;;
14817;SDS011;7500;57.698;11.986;2023-02-15T13:25:20;32.03;;;17.93;;
14817;SDS011;7500;57.698;11.986;2023-02-15T13:27:51;33.53;;;17.87;;
14817;SDS011;7500;57.698;11.986;2023-02-15T13:30:22;31.37;;;16.80;;
14817;SDS011;7500;57.698;11.986;2023-02-15T13:32:52;26.77;;;16.43;;
14817;SDS011;7500;57.698;11.986;2023-02-15T13:35:24;35.20;;;18.03;;
14817;SDS011;7500;57.698;11.986;2023-02-15T13:38:06;30.47;;;16.10;;
14817;SDS011;7500;57.698;11.986;2023-02-15T13:40:44;28.97;;;17.10;;
14817;SDS011;7500;57.698;11.986;2023-02-15T13:43:19;30.13;;;16.33;;
14817;SDS011;7500;57.698;11.986;2023-02-15T13:45:56;28.70;;;17.13;;
14817;SDS011;7500;57.698;11.986;2023-02-15T13:48:46;31.00;;;16.93;;
14817;SDS011;7500;57.698;11.986;2023-02-15T13:51:24;31.13;;;16.87;;
14817;SDS011;7500;57.698;11.986;2023-02-15T13:54:02;31.43;;;16.70;;
14817;SDS011;7500;57.698;11.986;2023-02-15T13:56:47;31.83;;;16.83;;
14817;SDS011;7500;57.698;11.986;2023-02-15T13:59:28;31.03;;;17.10;;
14817;SDS011;7500;57.698;11.986;2023-02-15T14:02:13;29.90;;;16.90;;
14817;SDS011;7500;57.698;11.986;2023-02-15T14:05:13;26.77;;;16.63;;
14817;SDS011;7500;57.698;11.986;2023-02-15T14:07:53;32.47;;;16.13;;
14817;SDS011;7500;57.698;11.986;2023-02-15T14:10:31;31.77;;;15.90;;
14817;SDS011;7500;57.698;11.986;2023-02-15T14:13:20;30.07;;;15.27;;
14817;SDS011;7500;57.698;11.986;2023-02-15T14:16:20;31.27;;;15.90;;
14817;SDS011;7500;57.698;11.986;2023-02-15T14:18:59;29.00;;;15.67;;
14817;SDS011;7500;57.698;11.986;2023-02-15T14:21:37;26.53;;;14.97;;
14817;SDS011;7500;57.698;11.986;2023-02-15T14:24:20;30.43;;;16.17;;
14817;SDS011;7500;57.698;11.986;2023-02-15T14:26:56;28.37;;;14.87;;
14817;SDS011;7500;57.698;11.986;2023-02-15T14:29:38;29.37;;;15.70;;
14817;SDS011;7500;57.698;11.986;2023-02-15T14:32:13;30.67;;;15.33;;
14817;SDS011;7500;57.698;11.986;2023-02-15T14:34:46;27.80;;;15.53;;
14817;SDS011;7500;57.698;11.986;2023-02-15T14:37:21;27.10;;;14.67;;
14817;SDS011;7500;57.698;11.986;2023-02-15T14:39:56;27.83;;;14.47;;
14817;SDS011;7500;57.698;11.986;2023-02-15T14:42:47;29.70;;;14.23;;
14817;SDS011;7500;57.698;11.986;2023-02-15T14:45:25;23.73;;;14.07;;
14817;SDS011;7500;57.698;11.986;2023-02-15T14:48:01;23.67;;;14.53;;
14817;SDS011;7500;57.698;11.986;2023-02-15T14:50:38;22.10;;;13.37;;
14817;SDS011;7500;57.698;11.986;2023-02-15T14:53:17;25.10;;;14.17;;
14817;SDS011;7500;57.698;11.986;2023-02-15T14:58:58;24.27;;;13.63;;
14817;SDS011;7500;57.698;11.986;2023-02-15T15:01:35;25.20;;;14.23;;
14817;SDS011;7500;57.698;11.986;2023-02-15T15:04:04;25.50;;;14.40;;
14817;SDS011;7500;57.698;11.986;2023-02-15T15:06:34;24.37;;;14.07;;
14817;SDS011;7500;57.698;11.986;2023-02-15T15:09:11;28.80;;;15.77;;
14817;SDS011;7500;57.698;11.986;2023-02-15T15:11:42;27.07;;;14.57;;
14817;SDS011;7500;57.698;11.986;2023-02-15T15:17:12;24.77;;;14.33;;